createdAt,value
2018-05-15T00:01:53.958Z,20.71
2018-05-15T00:04:21.396Z,20.78
2018-05-15T00:06:48.916Z,20.71
2018-05-15T00:09:15.560Z,20.71
2018-05-15T00:11:42.364Z,20.60
2018-05-15T00:14:10.817Z,20.70
2018-05-15T00:16:38.294Z,20.64
2018-05-15T00:19:05.975Z,20.53
2018-05-15T00:21:33.026Z,20.52
2018-05-15T00:23:59.785Z,20.52
2018-05-15T00:26:26.772Z,20.52
2018-05-15T00:28:53.457Z,20.48
2018-05-15T00:31:20.180Z,20.37
2018-05-15T00:33:47.650Z,20.31
2018-05-15T00:36:14.301Z,20.26
2018-05-15T00:38:41.109Z,20.19
2018-05-15T00:41:08.516Z,20.17
2018-05-15T00:43:35.286Z,20.13
2018-05-15T00:46:01.946Z,20.14
2018-05-15T00:48:29.320Z,20.15
2018-05-15T00:50:56.218Z,20.09
2018-05-15T00:53:22.823Z,20.03
2018-05-15T00:55:49.476Z,20.00
2018-05-15T00:58:16.138Z,19.93
2018-05-15T01:00:42.779Z,19.95
2018-05-15T01:03:11.305Z,19.94
2018-05-15T01:05:38.345Z,19.97
2018-05-15T01:08:04.981Z,19.94
2018-05-15T01:10:31.814Z,19.86
2018-05-15T01:13:00.169Z,19.90
2018-05-15T01:15:27.569Z,19.81
2018-05-15T01:17:54.278Z,19.74
2018-05-15T01:20:20.901Z,19.74
2018-05-15T01:22:48.793Z,19.74
2018-05-15T01:25:16.805Z,19.66
2018-05-15T01:27:43.553Z,19.69
2018-05-15T01:30:10.244Z,19.64
2018-05-15T01:32:37.746Z,19.60
2018-05-15T01:35:04.518Z,19.54
2018-05-15T01:37:31.371Z,19.47
2018-05-15T01:39:59.001Z,19.45
2018-05-15T01:42:25.642Z,19.45
2018-05-15T01:44:52.331Z,19.45
2018-05-15T01:47:20.539Z,19.38
2018-05-15T01:49:47.933Z,19.33
2018-05-15T01:52:14.600Z,19.31
2018-05-15T01:54:42.097Z,19.25
2018-05-15T01:57:08.740Z,19.25
2018-05-15T01:59:36.180Z,19.12
2018-05-15T02:02:03.639Z,19.11
2018-05-15T02:04:30.308Z,19.12
2018-05-15T02:06:56.931Z,19.07
2018-05-15T02:09:23.690Z,18.97
2018-05-15T02:11:50.571Z,18.99
2018-05-15T02:14:18.338Z,18.96
2018-05-15T02:16:45.743Z,18.81
2018-05-15T02:19:13.016Z,18.80
2018-05-15T02:21:41.361Z,18.72
2018-05-15T02:24:08.862Z,18.78
2018-05-15T02:26:36.377Z,18.73
2018-05-15T02:29:03.005Z,18.74
2018-05-15T02:31:29.766Z,18.69
2018-05-15T02:33:57.550Z,18.65
2018-05-15T02:36:24.248Z,18.66
2018-05-15T02:38:50.928Z,18.60
2018-05-15T02:41:17.621Z,18.58
2018-05-15T02:43:44.457Z,18.57
2018-05-15T02:46:11.841Z,18.58
2018-05-15T02:48:39.267Z,18.53
2018-05-15T02:51:06.625Z,18.46
2018-05-15T02:53:34.429Z,18.35
2018-05-15T02:56:01.829Z,18.34
2018-05-15T02:58:29.373Z,18.37
2018-05-15T03:00:56.027Z,18.38
2018-05-15T03:03:23.436Z,18.31
2018-05-15T03:05:50.104Z,18.22
2018-05-15T03:08:17.522Z,18.18
2018-05-15T03:10:44.171Z,18.14
2018-05-15T03:13:11.071Z,18.04
2018-05-15T03:15:38.507Z,18.00
2018-05-15T03:18:05.205Z,17.96
2018-05-15T03:20:31.854Z,17.98
2018-05-15T03:22:58.604Z,18.00
2018-05-15T03:25:25.251Z,17.82
2018-05-15T03:27:52.112Z,17.84
2018-05-15T03:30:18.832Z,17.84
2018-05-15T03:32:45.549Z,17.76
2018-05-15T03:35:13.041Z,17.78
2018-05-15T03:37:39.732Z,17.80
2018-05-15T03:40:07.201Z,17.77
2018-05-15T03:42:33.940Z,17.70
2018-05-15T03:45:00.615Z,17.60
2018-05-15T03:47:27.232Z,17.61
2018-05-15T03:49:53.957Z,17.66
2018-05-15T03:52:20.639Z,17.61
2018-05-15T03:54:47.605Z,17.58
2018-05-15T03:57:16.140Z,17.54
2018-05-15T03:59:43.000Z,17.54
2018-05-15T04:02:28.060Z,17.52
2018-05-15T04:05:13.154Z,17.52
2018-05-15T04:10:46.542Z,17.37
2018-05-15T04:13:13.171Z,17.45
2018-05-15T04:15:40.914Z,17.45
2018-05-15T04:18:08.478Z,17.40
2018-05-15T04:20:36.180Z,17.36
2018-05-15T04:23:02.794Z,17.55
2018-05-15T04:25:29.453Z,17.62
2018-05-15T04:27:56.101Z,17.73
2018-05-15T04:30:22.880Z,17.81
2018-05-15T04:32:49.631Z,17.89
2018-05-15T04:35:18.150Z,18.02
2018-05-15T04:37:45.509Z,17.87
2018-05-15T04:40:12.181Z,17.83
2018-05-15T04:42:38.891Z,17.72
2018-05-15T04:45:05.729Z,17.67
2018-05-15T04:47:33.329Z,17.73
2018-05-15T04:50:00.016Z,17.93
2018-05-15T04:52:26.784Z,17.98
2018-05-15T04:54:54.164Z,17.98
2018-05-15T04:57:21.688Z,17.98
2018-05-15T04:59:48.579Z,18.17
2018-05-15T05:02:16.103Z,17.98
2018-05-15T05:04:42.886Z,17.89
2018-05-15T05:07:10.293Z,17.79
2018-05-15T05:09:37.644Z,18.01
2018-05-15T05:12:04.310Z,18.10
2018-05-15T05:14:32.185Z,18.23
2018-05-15T05:17:00.060Z,18.49
2018-05-15T05:19:27.582Z,18.51
2018-05-15T05:21:55.344Z,18.82
2018-05-15T05:24:22.004Z,18.88
2018-05-15T05:26:48.881Z,18.94
2018-05-15T05:29:17.231Z,18.90
2018-05-15T05:31:44.774Z,18.67
2018-05-15T05:34:12.189Z,18.69
2018-05-15T05:36:38.862Z,18.57
2018-05-15T05:39:05.604Z,18.61
2018-05-15T05:41:32.325Z,18.62
2018-05-15T05:43:59.069Z,18.63
2018-05-15T05:46:25.841Z,18.78
2018-05-15T05:48:53.475Z,18.98
2018-05-15T05:51:21.000Z,18.85
2018-05-15T05:53:48.247Z,18.88
2018-05-15T05:56:15.946Z,18.82
2018-05-15T05:58:43.492Z,18.94
2018-05-15T06:01:10.361Z,18.92
2018-05-15T06:03:36.999Z,19.20
2018-05-15T06:06:03.653Z,19.02
2018-05-15T06:08:30.380Z,18.90
2018-05-15T06:10:57.019Z,18.94
2018-05-15T06:13:23.689Z,18.94
2018-05-15T06:15:50.427Z,19.11
2018-05-15T06:18:17.081Z,19.24
2018-05-15T06:20:45.593Z,19.51
2018-05-15T06:23:13.064Z,19.54
2018-05-15T06:25:39.672Z,19.72
2018-05-15T06:28:07.089Z,19.77
2018-05-15T06:30:33.963Z,19.94
2018-05-15T06:33:01.375Z,19.75
2018-05-15T06:35:28.147Z,19.80
2018-05-15T06:37:54.829Z,19.85
2018-05-15T06:40:21.493Z,20.01
2018-05-15T06:42:48.199Z,20.02
2018-05-15T06:45:16.424Z,20.10
2018-05-15T06:47:43.043Z,20.20
2018-05-15T06:50:09.702Z,20.43
2018-05-15T06:52:36.926Z,20.51
2018-05-15T06:55:03.540Z,20.60
2018-05-15T06:57:30.385Z,20.63
2018-05-15T06:59:57.073Z,20.43
2018-05-15T07:02:24.759Z,20.54
2018-05-15T07:04:52.508Z,20.53
2018-05-15T07:07:20.264Z,20.76
2018-05-15T07:09:47.076Z,20.70
2018-05-15T07:12:13.748Z,20.83
2018-05-15T07:14:40.446Z,20.77
2018-05-15T07:17:07.373Z,20.46
2018-05-15T07:19:34.918Z,20.54
2018-05-15T07:22:02.473Z,20.62
2018-05-15T07:24:30.645Z,20.65
2018-05-15T07:26:58.069Z,20.88
2018-05-15T07:29:24.856Z,20.89
2018-05-15T07:31:52.400Z,20.87
2018-05-15T07:34:19.301Z,20.71
2018-05-15T07:36:45.930Z,20.98
2018-05-15T07:39:13.549Z,21.30
2018-05-15T07:41:40.320Z,21.28
2018-05-15T07:44:07.840Z,21.00
2018-05-15T07:46:34.709Z,21.09
2018-05-15T07:49:02.196Z,21.26
2018-05-15T07:51:28.830Z,21.30
2018-05-15T07:53:55.696Z,20.98
2018-05-15T07:56:22.303Z,21.09
2018-05-15T07:58:49.060Z,21.34
2018-05-15T08:01:15.736Z,21.57
2018-05-15T08:03:42.600Z,21.55
2018-05-15T08:06:10.175Z,21.74
2018-05-15T08:08:37.546Z,21.76
2018-05-15T08:11:04.219Z,21.57
2018-05-15T08:13:31.108Z,21.48
2018-05-15T08:15:58.501Z,21.43
2018-05-15T08:18:25.224Z,21.63
2018-05-15T08:20:51.914Z,21.87
2018-05-15T08:23:18.626Z,21.59
2018-05-15T08:25:45.264Z,21.75
2018-05-15T08:28:12.006Z,21.97
2018-05-15T08:30:38.651Z,22.15
2018-05-15T08:33:05.376Z,22.35
2018-05-15T08:35:32.108Z,22.30
2018-05-15T08:37:58.727Z,22.35
2018-05-15T08:40:26.219Z,22.46
2018-05-15T08:42:52.859Z,22.59
2018-05-15T08:45:19.589Z,22.54
2018-05-15T08:47:46.151Z,22.58
2018-05-15T08:50:12.821Z,22.71
2018-05-15T08:52:40.915Z,22.71
2018-05-15T08:55:07.728Z,22.57
2018-05-15T08:57:34.539Z,22.62
2018-05-15T09:00:01.217Z,22.59
2018-05-15T09:02:28.720Z,22.61
2018-05-15T09:04:55.986Z,22.65
2018-05-15T09:07:22.840Z,22.53
2018-05-15T09:09:49.959Z,22.66
2018-05-15T09:12:16.623Z,22.39
2018-05-15T09:14:43.392Z,22.56
2018-05-15T09:17:10.908Z,22.62
2018-05-15T09:19:37.538Z,22.78
2018-05-15T09:22:05.088Z,22.69
2018-05-15T09:24:32.262Z,22.73
2018-05-15T09:26:58.930Z,22.87
2018-05-15T09:29:25.697Z,23.08
2018-05-15T09:31:52.474Z,23.14
2018-05-15T09:34:20.046Z,23.10
2018-05-15T09:36:47.018Z,22.89
2018-05-15T09:39:13.648Z,22.89
2018-05-15T09:41:40.401Z,23.05
2018-05-15T09:44:07.106Z,22.94
2018-05-15T09:46:33.773Z,22.94
2018-05-15T09:49:00.426Z,23.06
2018-05-15T09:51:27.176Z,22.98
2018-05-15T09:53:54.591Z,23.07
2018-05-15T09:56:21.497Z,23.07
2018-05-15T09:58:48.158Z,23.12
2018-05-15T10:01:14.862Z,23.23
2018-05-15T10:03:42.330Z,23.30
2018-05-15T10:06:09.948Z,23.56
2018-05-15T10:08:36.624Z,23.44
2018-05-15T10:11:04.004Z,23.39
2018-05-15T10:13:30.683Z,23.58
2018-05-15T10:15:57.478Z,23.56
2018-05-15T10:18:24.834Z,23.36
2018-05-15T10:20:51.493Z,23.42
2018-05-15T10:23:18.290Z,23.66
2018-05-15T10:25:45.853Z,23.85
2018-05-15T10:28:13.426Z,23.71
2018-05-15T10:30:40.897Z,23.76
2018-05-15T10:33:07.714Z,23.66
2018-05-15T10:35:35.341Z,23.77
2018-05-15T10:38:02.238Z,23.93
2018-05-15T10:40:28.880Z,23.90
2018-05-15T10:42:55.661Z,23.92
2018-05-15T10:45:22.315Z,23.97
2018-05-15T10:47:49.837Z,23.94
2018-05-15T10:50:16.639Z,23.87
2018-05-15T10:52:44.074Z,23.91
2018-05-15T10:55:10.769Z,23.84
2018-05-15T10:57:37.428Z,23.87
2018-05-15T11:00:04.121Z,24.05
2018-05-15T11:02:31.595Z,24.01
2018-05-15T11:04:58.276Z,24.02
2018-05-15T11:07:24.955Z,24.13
2018-05-15T11:09:52.357Z,24.06
2018-05-15T11:12:19.028Z,23.90
2018-05-15T11:14:46.638Z,23.99
2018-05-15T11:17:13.248Z,24.14
2018-05-15T11:19:58.496Z,24.51
2018-05-15T11:22:43.613Z,24.27
2018-05-15T11:25:10.267Z,24.31
2018-05-15T11:27:36.985Z,24.31
2018-05-15T11:30:03.745Z,24.36
2018-05-15T11:32:30.460Z,24.43
2018-05-15T11:34:57.901Z,24.07
2018-05-15T11:37:25.293Z,24.33
2018-05-15T11:39:52.049Z,24.33
2018-05-15T11:42:18.865Z,24.53
2018-05-15T11:44:46.241Z,24.75
2018-05-15T11:47:13.073Z,24.93
2018-05-15T11:49:40.776Z,24.78
2018-05-15T11:52:07.400Z,24.88
2018-05-15T11:54:33.198Z,24.63
2018-05-15T11:57:01.303Z,24.81
2018-05-15T11:59:27.974Z,24.82
2018-05-15T12:01:54.740Z,24.81
2018-05-15T12:04:21.500Z,24.60
2018-05-15T12:06:48.127Z,24.62
2018-05-15T12:09:14.986Z,24.68
2018-05-15T12:11:41.614Z,24.86
2018-05-15T12:14:08.341Z,24.89
2018-05-15T12:16:35.004Z,24.62
2018-05-15T12:19:01.648Z,24.48
2018-05-15T12:21:28.349Z,24.57
2018-05-15T12:23:55.810Z,24.53
2018-05-15T12:26:23.370Z,24.68
2018-05-15T12:28:50.857Z,24.65
2018-05-15T12:31:17.511Z,24.54
2018-05-15T12:33:44.256Z,24.63
2018-05-15T12:36:10.960Z,24.64
2018-05-15T12:38:37.760Z,24.63
2018-05-15T12:41:05.180Z,24.80
2018-05-15T12:43:32.636Z,24.91
2018-05-15T12:45:59.446Z,24.92
2018-05-15T12:48:27.086Z,24.86
2018-05-15T12:50:53.839Z,25.02
2018-05-15T12:53:21.246Z,25.17
2018-05-15T12:55:47.931Z,25.47
2018-05-15T12:58:15.296Z,25.33
2018-05-15T13:00:42.684Z,25.22
2018-05-15T13:03:09.334Z,25.24
2018-05-15T13:05:35.985Z,25.55
2018-05-15T13:08:02.720Z,25.82
2018-05-15T13:10:29.374Z,25.57
2018-05-15T13:12:56.305Z,25.23
2018-05-15T13:15:23.809Z,25.10
2018-05-15T13:17:51.305Z,25.01
2018-05-15T13:20:18.066Z,24.80
2018-05-15T13:22:44.772Z,25.18
2018-05-15T13:25:11.425Z,25.48
2018-05-15T13:27:38.077Z,25.62
2018-05-15T13:30:04.787Z,25.93
2018-05-15T13:32:31.450Z,25.88
2018-05-15T13:34:58.242Z,25.49
2018-05-15T13:37:25.847Z,25.53
2018-05-15T13:39:52.482Z,25.46
2018-05-15T13:42:19.170Z,25.95
2018-05-15T13:44:45.884Z,25.93
2018-05-15T13:47:12.639Z,26.39
2018-05-15T13:49:39.454Z,26.90
2018-05-15T13:52:06.195Z,26.43
2018-05-15T13:54:32.854Z,26.58
2018-05-15T13:56:59.495Z,26.79
2018-05-15T13:59:26.179Z,26.29
2018-05-15T14:01:52.891Z,26.34
2018-05-15T14:04:19.583Z,26.39
2018-05-15T14:06:46.377Z,26.25
2018-05-15T14:09:13.040Z,26.79
2018-05-15T14:11:39.871Z,26.98
2018-05-15T14:14:07.445Z,26.89
2018-05-15T14:16:34.194Z,26.56
2018-05-15T14:19:01.744Z,27.10
2018-05-15T14:21:28.399Z,26.63
2018-05-15T14:23:55.115Z,27.40
2018-05-15T14:26:22.652Z,27.13
2018-05-15T14:28:49.343Z,27.41
2018-05-15T14:31:16.915Z,27.29
2018-05-15T14:33:43.592Z,27.22
2018-05-15T14:36:10.310Z,27.13
2018-05-15T14:38:37.197Z,27.38
2018-05-15T14:41:04.664Z,26.92
2018-05-15T14:43:32.058Z,27.27
2018-05-15T14:45:58.725Z,26.73
2018-05-15T14:48:25.589Z,27.00
2018-05-15T14:54:11.574Z,27.12
2018-05-15T14:56:38.981Z,26.97
2018-05-15T14:59:05.801Z,27.21
2018-05-15T15:01:33.374Z,28.19
2018-05-15T15:04:00.950Z,28.61
2018-05-15T15:06:29.493Z,28.06
2018-05-15T15:08:56.111Z,27.72
2018-05-15T15:11:22.990Z,27.12
2018-05-15T15:13:50.545Z,26.70
2018-05-15T15:16:18.655Z,25.68
2018-05-15T15:18:45.447Z,25.23
2018-05-15T15:21:12.133Z,25.12
2018-05-15T15:23:38.901Z,25.26
2018-05-15T15:26:05.575Z,25.31
2018-05-15T15:28:32.237Z,25.21
2018-05-15T15:30:58.961Z,25.17
2018-05-15T15:33:26.487Z,25.35
2018-05-15T15:35:53.120Z,25.33
2018-05-15T15:38:20.760Z,25.34
2018-05-15T15:40:47.514Z,25.19
2018-05-15T15:43:14.359Z,25.17
2018-05-15T15:45:41.196Z,25.30
2018-05-15T15:48:07.865Z,25.26
2018-05-15T15:50:34.695Z,25.21
2018-05-15T15:53:01.334Z,25.18
2018-05-15T15:55:28.092Z,25.03
2018-05-15T15:57:55.026Z,25.24
2018-05-15T16:00:21.825Z,25.14
2018-05-15T16:02:48.652Z,25.10
2018-05-15T16:05:16.258Z,24.96
2018-05-15T16:07:43.087Z,25.01
2018-05-15T16:10:09.790Z,25.08
2018-05-15T16:12:36.389Z,24.96
2018-05-15T16:15:03.100Z,24.92
2018-05-15T16:17:29.942Z,25.00
2018-05-15T16:19:56.597Z,25.03
2018-05-15T16:22:23.288Z,24.89
2018-05-15T16:24:50.894Z,24.86
2018-05-15T16:27:17.865Z,24.88
2018-05-15T16:29:45.198Z,24.79
2018-05-15T16:32:11.852Z,24.78
2018-05-15T16:34:39.561Z,24.82
2018-05-15T16:37:06.313Z,24.83
2018-05-15T16:39:33.283Z,24.78
2018-05-15T16:42:01.819Z,24.90
2018-05-15T16:44:28.521Z,25.00
2018-05-15T16:46:55.511Z,24.82
2018-05-15T16:49:22.120Z,24.69
2018-05-15T16:51:49.524Z,24.76
2018-05-15T16:54:16.482Z,24.89
2018-05-15T16:56:43.664Z,24.81
2018-05-15T16:59:11.269Z,24.84
2018-05-15T17:01:38.734Z,24.90
2018-05-15T17:04:05.410Z,24.72
2018-05-15T17:06:32.073Z,24.68
2018-05-15T17:08:59.502Z,24.61
2018-05-15T17:11:26.230Z,24.64
2018-05-15T17:13:53.460Z,24.68
2018-05-15T17:16:20.168Z,24.74
2018-05-15T17:18:47.065Z,24.81
2018-05-15T17:21:13.911Z,24.66
2018-05-15T17:23:40.621Z,24.49
2018-05-15T17:26:08.628Z,24.47
2018-05-15T17:28:35.934Z,24.47
2018-05-15T17:31:02.657Z,24.38
2018-05-15T17:33:30.245Z,24.41
2018-05-15T17:35:57.806Z,24.47
2018-05-15T17:38:25.277Z,24.45
2018-05-15T17:40:52.699Z,24.51
2018-05-15T17:43:19.354Z,24.54
2018-05-15T17:45:46.830Z,24.58
2018-05-15T17:48:13.494Z,24.45
2018-05-15T17:50:41.022Z,24.38
2018-05-15T17:53:07.781Z,24.51
2018-05-15T17:55:34.458Z,24.54
2018-05-15T17:58:01.099Z,24.53
2018-05-15T18:00:27.747Z,24.47
2018-05-15T18:02:55.346Z,24.53
2018-05-15T18:05:22.186Z,24.44
2018-05-15T18:07:48.837Z,24.40
2018-05-15T18:10:16.091Z,24.41
2018-05-15T18:12:42.761Z,24.41
2018-05-15T18:15:09.411Z,24.44
2018-05-15T18:17:38.492Z,24.41
2018-05-15T18:20:05.300Z,24.40
2018-05-15T18:22:31.990Z,24.27
2018-05-15T18:24:59.765Z,24.18
2018-05-15T18:27:26.718Z,24.15
2018-05-15T18:29:53.424Z,24.16
2018-05-15T18:32:20.109Z,24.23
2018-05-15T18:34:48.056Z,24.19
2018-05-15T18:37:15.633Z,24.09
2018-05-15T18:39:43.068Z,24.01
2018-05-15T18:42:09.755Z,23.95
2018-05-15T18:44:36.478Z,23.93
2018-05-15T18:47:04.098Z,23.95
2018-05-15T18:49:30.913Z,23.91
2018-05-15T18:51:57.765Z,23.90
2018-05-15T18:54:24.574Z,23.90
2018-05-15T18:56:51.426Z,23.89
2018-05-15T18:59:18.129Z,23.96
2018-05-15T19:01:45.015Z,23.97
2018-05-15T19:04:11.903Z,23.78
2018-05-15T19:06:39.180Z,23.73
2018-05-15T19:09:05.831Z,23.68
2018-05-15T19:11:33.284Z,23.68
2018-05-15T19:14:00.999Z,23.67
2018-05-15T19:16:27.630Z,23.66
2018-05-15T19:18:54.413Z,23.57
2018-05-15T19:21:21.274Z,23.53
2018-05-15T19:23:48.872Z,23.50
2018-05-15T19:26:15.514Z,23.42
2018-05-15T19:28:42.187Z,23.37
2018-05-15T19:31:15.119Z,23.40
2018-05-15T19:33:41.745Z,23.30
2018-05-15T19:36:09.447Z,23.22
2018-05-15T19:38:36.171Z,23.17
2018-05-15T19:41:05.689Z,23.21
2018-05-15T19:43:33.260Z,23.03
2018-05-15T19:45:59.934Z,22.97
2018-05-15T19:48:26.697Z,23.13
2018-05-15T19:50:53.445Z,23.10
2018-05-15T19:53:20.185Z,23.12
2018-05-15T19:55:46.965Z,23.04
2018-05-15T19:58:13.882Z,23.02
2018-05-15T20:00:40.540Z,22.96
2018-05-15T20:03:08.315Z,22.77
2018-05-15T20:05:34.990Z,22.78
2018-05-15T20:08:02.458Z,22.81
2018-05-15T20:10:30.777Z,22.78
2018-05-15T20:12:57.483Z,22.59
2018-05-15T20:15:25.033Z,22.72
2018-05-15T20:17:52.467Z,22.71
2018-05-15T20:20:19.889Z,22.58
2018-05-15T20:22:46.582Z,22.41
2018-05-15T20:25:13.993Z,22.35
2018-05-15T20:27:40.649Z,22.32
2018-05-15T20:30:08.152Z,22.21
2018-05-15T20:32:34.771Z,22.34
2018-05-15T20:35:02.341Z,22.32
2018-05-15T20:37:29.731Z,22.27
2018-05-15T20:39:56.553Z,22.43
2018-05-15T20:42:23.220Z,22.34
2018-05-15T20:44:49.908Z,22.35
2018-05-15T20:47:17.319Z,22.28
2018-05-15T20:49:44.091Z,22.30
2018-05-15T20:52:10.806Z,22.17
2018-05-15T20:54:37.499Z,22.14
2018-05-15T20:57:04.916Z,22.19
2018-05-15T20:59:31.751Z,22.22
2018-05-15T21:01:58.435Z,22.21
2018-05-15T21:04:25.803Z,22.14
2018-05-15T21:06:52.563Z,22.15
2018-05-15T21:09:19.221Z,22.14
2018-05-15T21:11:46.014Z,22.09
2018-05-15T21:14:13.430Z,22.08
2018-05-15T21:16:40.297Z,22.06
2018-05-15T21:19:07.734Z,22.00
2018-05-15T21:21:34.365Z,21.99
2018-05-15T21:24:01.336Z,21.85
2018-05-15T21:26:28.104Z,21.84
2018-05-15T21:28:55.684Z,21.77
2018-05-15T21:31:22.516Z,21.71
2018-05-15T21:33:49.209Z,21.70
2018-05-15T21:36:16.121Z,21.61
2018-05-15T21:38:42.824Z,21.63
2018-05-15T21:41:10.215Z,21.58
2018-05-15T21:43:37.242Z,21.49
2018-05-15T21:46:03.869Z,21.44
2018-05-15T21:48:34.318Z,21.45
2018-05-15T21:51:01.921Z,21.39
2018-05-15T21:53:29.096Z,21.39
2018-05-15T21:55:56.511Z,21.42
2018-05-15T21:58:24.137Z,21.34
2018-05-15T22:00:50.965Z,21.34
2018-05-15T22:03:18.959Z,21.29
2018-05-15T22:05:45.774Z,21.20
2018-05-15T22:08:14.204Z,21.23
2018-05-15T22:10:41.845Z,21.20
2018-05-15T22:13:26.843Z,21.18
2018-05-15T22:16:12.034Z,21.13
2018-05-15T22:18:57.116Z,21.09
2018-05-15T22:21:42.074Z,21.13
2018-05-15T22:24:09.972Z,21.10
2018-05-15T22:26:38.381Z,21.01
2018-05-15T22:29:05.922Z,20.97
2018-05-15T22:31:32.750Z,20.99
2018-05-15T22:34:00.182Z,20.98
2018-05-15T22:36:26.872Z,20.93
2018-05-15T22:38:53.543Z,20.85
2018-05-15T22:41:21.107Z,20.77
2018-05-15T22:43:47.770Z,20.68
2018-05-15T22:46:14.429Z,20.69
2018-05-15T22:48:41.817Z,20.62
2018-05-15T22:51:08.938Z,20.52
2018-05-15T22:53:35.675Z,20.48
2018-05-15T22:56:03.885Z,20.40
2018-05-15T22:58:30.700Z,20.38
2018-05-15T23:00:57.383Z,20.39
2018-05-15T23:03:24.005Z,20.34
2018-05-15T23:05:50.640Z,20.26
2018-05-15T23:08:17.348Z,20.25
2018-05-15T23:10:44.752Z,20.20
2018-05-15T23:13:11.584Z,20.12
2018-05-15T23:15:38.239Z,20.20
2018-05-15T23:18:04.961Z,20.26
2018-05-15T23:20:31.595Z,20.30
2018-05-15T23:22:58.385Z,20.28
2018-05-15T23:25:25.004Z,20.30
2018-05-15T23:27:52.496Z,20.41
2018-05-15T23:30:20.043Z,20.45
2018-05-15T23:32:47.613Z,20.43
2018-05-15T23:35:15.048Z,20.33
2018-05-15T23:37:41.662Z,20.24
2018-05-15T23:40:09.032Z,20.19
2018-05-15T23:42:36.287Z,20.15
2018-05-15T23:45:02.902Z,20.06
2018-05-15T23:47:30.332Z,20.05
2018-05-15T23:49:57.090Z,19.98
2018-05-15T23:52:24.554Z,19.98
2018-05-15T23:54:51.207Z,19.94
2018-05-15T23:57:17.880Z,19.97
2018-05-15T23:59:44.589Z,19.91
